Arca — PDHT — position and weather

sailwx.info

Track history (hours):
 
Tides and Currents Weather Stations Pressure Air Temp Water Temp Dewpoint Dewpoint Depression Visibility Wind Speed Wind Dir Waves Ship Positions

Oceanographic research ship Arca (Netherlands)

Detailed information on ship capabilities available from University of Delaware's Ocean Information Center.

Last reported at 2016-Jun-28 16:33 UTC. Time now 2016-Jun-28 17:07 UTC.
Position N 52°06' E 004°13'.

Length 83 m; draft 5 m.

Type: Law enforcement. MMSI: 244454000.

Date/timePositionNaut miles runAvg speedWind from/ knotsBaromVisibWave heightAir tempDewpointWater temp
2016-Jun-28 16:33N 52°06' E 004°13'8 8.4
2016-Jun-28 15:34N 51°59' E 004°06'0 0.4
2016-Jun-28 14:33N 51°59' E 004°06'3 3.3
2016-Jun-28 13:33N 52°00' E 004°01'5 4.9
2016-Jun-28 12:33N 52°04' E 004°06'5 4.5
2016-Jun-28 11:33N 52°08' E 004°09'1 0.7
2016-Jun-28 10:33N 52°09' E 004°10'1 0.7
2016-Jun-28 09:33N 52°09' E 004°11'3 3.4
2016-Jun-28 08:34N 52°12' E 004°14'2 2.0
2016-Jun-28 07:33N 52°10' E 004°14'2 2.0
2016-Jun-28 06:33N 52°08' E 004°13'3 1.4
2016-Jun-28 04:33N 52°06' E 004°16'0 0.0
2016-Jun-28 03:33N 52°06' E 004°16'0 0.0
2016-Jun-28 02:33N 52°06' E 004°16'0 0.0
2016-Jun-28 01:33N 52°06' E 004°16'0 0.0
2016-Jun-28 00:33N 52°06' E 004°16'0 0.0
2016-Jun-27 23:33N 52°06' E 004°16'0 0.0
2016-Jun-27 22:33N 52°06' E 004°16'0 0.0
2016-Jun-27 21:33N 52°06' E 004°16'0 0.0
2016-Jun-27 20:33N 52°06' E 004°16'0 0.0
2016-Jun-27 19:33N 52°06' E 004°16'0 0.0
2016-Jun-27 18:33N 52°06' E 004°16'0 0.0
2016-Jun-27 17:33N 52°06' E 004°16'0 0.0
2016-Jun-27 16:33N 52°06' E 004°16'0 0.0
2016-Jun-27 15:33N 52°06' E 004°16'0 0.0
2016-Jun-27 14:33N 52°06' E 004°16'0 0.0
2016-Jun-27 13:33N 52°06' E 004°16'0 0.0
2016-Jun-27 12:33N 52°06' E 004°16'0 0.0
2016-Jun-27 11:34N 52°06' E 004°16'0 0.0
2016-Jun-27 10:34N 52°06' E 004°16'0 0.0
2016-Jun-27 09:34N 52°06' E 004°16'0 0.0
2016-Jun-27 08:33N 52°06' E 004°16'0 0.0
2016-Jun-27 07:33N 52°06' E 004°16'0 0.0
2016-Jun-27 06:30N 52°06' E 004°16'0 0.0
2016-Jun-27 05:33N 52°06' E 004°16'0 0.0
2016-Jun-27 04:33N 52°06' E 004°16'0 0.0
2016-Jun-27 03:27N 52°06' E 004°16'0 0.0
2016-Jun-27 02:33N 52°06' E 004°16'0 0.0
2016-Jun-27 01:33N 52°06' E 004°16'0 0.0
2016-Jun-27 00:33N 52°06' E 004°16'0 0.0
2016-Jun-26 23:33N 52°06' E 004°16'0 0.0
2016-Jun-26 22:33N 52°06' E 004°16'0 0.0
2016-Jun-26 21:33N 52°06' E 004°16'0 0.0
2016-Jun-26 20:33N 52°06' E 004°16'0 0.0
2016-Jun-26 19:33N 52°06' E 004°16'0 0.0
2016-Jun-26 18:33N 52°06' E 004°16'0 0.0
2016-Jun-26 17:33N 52°06' E 004°16'0 0.0
2016-Jun-26 16:33N 52°06' E 004°16'0 0.0
2016-Jun-26 15:33N 52°06' E 004°16'0 0.0
2016-Jun-26 14:33N 52°06' E 004°16'0 0.0
2016-Jun-26 13:33N 52°06' E 004°16'0 0.0
2016-Jun-26 12:33N 52°06' E 004°16'0 0.0
2016-Jun-26 11:30N 52°06' E 004°16'0 0.0
2016-Jun-26 10:33N 52°06' E 004°16'0 0.0
2016-Jun-26 09:33N 52°06' E 004°16'0 0.0
2016-Jun-26 08:33N 52°06' E 004°16'0 0.0
2016-Jun-26 07:33N 52°06' E 004°16'0 0.0
2016-Jun-26 06:33N 52°06' E 004°16'0 0.0
2016-Jun-26 05:33N 52°06' E 004°16'0 0.0
2016-Jun-26 04:33N 52°06' E 004°16'0 0.0
2016-Jun-26 03:33N 52°06' E 004°16'0 0.0
2016-Jun-26 02:30N 52°06' E 004°16'0 0.0
2016-Jun-26 01:33N 52°06' E 004°16'0 0.0
2016-Jun-26 00:33N 52°06' E 004°16'0 0.0
2016-Jun-25 23:30N 52°06' E 004°16'0 0.0
2016-Jun-25 22:33N 52°06' E 004°16'0 0.0
2016-Jun-25 21:33N 52°06' E 004°16'0 0.0
2016-Jun-25 20:33N 52°06' E 004°16'0 0.0
2016-Jun-25 19:33N 52°06' E 004°16'0 0.0
2016-Jun-25 18:24N 52°06' E 004°16'0 0.0
2016-Jun-25 17:33N 52°06' E 004°16'0 0.0
2016-Jun-25 16:27N 52°06' E 004°16'0 0.0
2016-Jun-25 15:33N 52°06' E 004°16'0 0.0
2016-Jun-25 14:33N 52°06' E 004°16'0 0.0
2016-Jun-25 13:33N 52°06' E 004°16'0 0.0
2016-Jun-25 12:30N 52°06' E 004°16'0 0.0
2016-Jun-25 11:30N 52°06' E 004°16'0 0.0
2016-Jun-25 10:33N 52°06' E 004°16'0 0.0
2016-Jun-25 09:33N 52°06' E 004°16'0 0.0
2016-Jun-25 08:33N 52°06' E 004°16'0 0.0
2016-Jun-25 07:33N 52°06' E 004°16'0 0.0
2016-Jun-25 06:33N 52°06' E 004°16'0 0.0
2016-Jun-25 05:33N 52°06' E 004°16'0 0.0
2016-Jun-25 04:33N 52°06' E 004°16'0 0.0
2016-Jun-25 03:33N 52°06' E 004°16'0 0.0
2016-Jun-25 02:33N 52°06' E 004°16'0 0.0
2016-Jun-25 01:33N 52°06' E 004°16'0 0.0
2016-Jun-25 00:33N 52°06' E 004°16'0 0.0
2016-Jun-24 23:33N 52°06' E 004°16'0 0.0
2016-Jun-24 22:30N 52°06' E 004°16'0 0.0
2016-Jun-24 21:33N 52°06' E 004°16'0 0.0
2016-Jun-24 20:33N 52°06' E 004°16'0 0.0
2016-Jun-24 19:33N 52°06' E 004°16'0 0.0
2016-Jun-24 18:33N 52°06' E 004°16'0 0.0
2016-Jun-24 17:33N 52°06' E 004°16'0 0.0
2016-Jun-24 16:33N 52°06' E 004°16'0 0.0
2016-Jun-24 15:33N 52°06' E 004°16'0 0.0
2016-Jun-24 14:33N 52°06' E 004°16'0 0.0
2016-Jun-24 13:33N 52°06' E 004°16'0 0.0
2016-Jun-24 12:33N 52°06' E 004°16'0 0.0
2016-Jun-24 11:33N 52°06' E 004°16'0 0.0
2016-Jun-24 10:33N 52°06' E 004°16'0 0.0
2016-Jun-24 09:33N 52°06' E 004°16'0 0.0
2016-Jun-24 08:33N 52°06' E 004°16'0 0.0
2016-Jun-24 07:33N 52°06' E 004°16'0 0.0
2016-Jun-24 04:30N 52°06' E 004°16'0 0.0
2016-Jun-24 03:33N 52°06' E 004°16'0 0.0
2016-Jun-24 02:33N 52°06' E 004°16'0 0.0
2016-Jun-24 01:33N 52°06' E 004°16'0 0.0
2016-Jun-24 00:33N 52°06' E 004°16'0 0.0
2016-Jun-23 23:33N 52°06' E 004°16'0 0.0
2016-Jun-23 22:33N 52°06' E 004°16'0 0.0
2016-Jun-23 21:30N 52°06' E 004°16'0 0.0
2016-Jun-23 20:27N 52°06' E 004°16'0 0.0
2016-Jun-23 19:33N 52°06' E 004°16'0 0.0
2016-Jun-23 18:27N 52°06' E 004°16'4 4.8
2016-Jun-23 17:34N 52°05' E 004°09'1414.3
2016-Jun-23 16:33N 51°54' E 003°53'7 7.0
2016-Jun-23 15:33N 51°50' E 004°02'1 0.6
2016-Jun-23 14:29N 51°49' E 004°03'0 0.0
2016-Jun-23 13:32N 51°49' E 004°03'0 0.0
2016-Jun-23 12:20N 51°49' E 004°03'0 0.0
2016-Jun-23 11:32N 51°49' E 004°03'0 0.0
2016-Jun-23 10:32N 51°49' E 004°03'0 0.0
2016-Jun-23 09:32N 51°49' E 004°03'0 0.0
2016-Jun-23 08:32N 51°49' E 004°03'0 0.0
2016-Jun-23 07:23N 51°49' E 004°03'0 0.0
2016-Jun-23 05:32N 51°49' E 004°03'0 0.0
2016-Jun-23 04:32N 51°49' E 004°03'0 0.0
2016-Jun-23 03:32N 51°49' E 004°03'0 0.0
2016-Jun-23 02:32N 51°49' E 004°03'0 0.0
2016-Jun-23 01:32N 51°49' E 004°03'0 0.0
2016-Jun-23 00:32N 51°49' E 004°03'0 0.0
2016-Jun-22 23:32N 51°49' E 004°03'0 0.0
2016-Jun-22 22:32N 51°49' E 004°03'0 0.0
2016-Jun-22 21:32N 51°49' E 004°03'0 0.0
2016-Jun-22 20:32N 51°49' E 004°03'0 0.0
2016-Jun-22 19:32N 51°49' E 004°03'0 0.0
2016-Jun-22 18:32N 51°49' E 004°03'0 0.0
2016-Jun-22 17:32N 51°49' E 004°03'0 0.0
2016-Jun-22 16:32N 51°49' E 004°03'0 0.0
2016-Jun-22 15:32N 51°49' E 004°03'0 0.0
2016-Jun-22 14:32N 51°49' E 004°03'0 0.0
2016-Jun-22 13:32N 51°49' E 004°03'0 0.0
2016-Jun-22 12:32N 51°49' E 004°03'0 0.0
2016-Jun-22 11:32N 51°49' E 004°03'0 0.0
2016-Jun-22 10:32N 51°49' E 004°03'0 0.0
2016-Jun-22 09:32N 51°49' E 004°03'0 0.0
2016-Jun-22 08:32N 51°49' E 004°03'0 0.0
2016-Jun-22 07:29N 51°49' E 004°03'0 0.0
2016-Jun-22 06:32N 51°49' E 004°03'0 0.0
2016-Jun-22 05:29N 51°49' E 004°03'0 0.0
2016-Jun-22 04:32N 51°49' E 004°03'0 0.0
2016-Jun-22 03:32N 51°49' E 004°03'0 0.0
2016-Jun-22 02:29N 51°49' E 004°03'0 0.0
2016-Jun-22 01:32N 51°49' E 004°03'0 0.0
2016-Jun-22 00:32N 51°49' E 004°03'0 0.0
2016-Jun-21 23:32N 51°49' E 004°03'0 0.0
2016-Jun-21 22:32N 51°49' E 004°03'0 0.0
2016-Jun-21 21:32N 51°49' E 004°03'0 0.0
2016-Jun-21 20:32N 51°49' E 004°03'0 0.0
2016-Jun-21 19:32N 51°49' E 004°03'0 0.0
2016-Jun-21 18:32N 51°49' E 004°03'0 0.0
2016-Jun-21 17:32N 51°49' E 004°03'0 0.0
2016-Jun-21 16:32N 51°49' E 004°03'0 0.0
2016-Jun-21 15:32N 51°49' E 004°03'0 0.0
2016-Jun-21 14:32N 51°49' E 004°03'0 0.0
2016-Jun-21 13:32N 51°49' E 004°03'0 0.0
2016-Jun-21 12:32N 51°49' E 004°03'0 0.0
2016-Jun-21 11:32N 51°49' E 004°03'0 0.0
2016-Jun-21 10:32N 51°49' E 004°03'0 0.0
2016-Jun-21 09:32N 51°49' E 004°03'0 0.0
2016-Jun-21 08:32N 51°49' E 004°03'0 0.0
2016-Jun-21 07:32N 51°49' E 004°03'0 0.0
2016-Jun-21 04:32N 51°49' E 004°03'0 0.0
2016-Jun-21 03:32N 51°49' E 004°03'0 0.0
2016-Jun-21 02:32N 51°49' E 004°03'0 0.0
2016-Jun-21 01:29N 51°49' E 004°03'0 0.0
2016-Jun-21 00:32N 51°49' E 004°03'0 0.0
2016-Jun-20 23:32N 51°49' E 004°03'0 0.0
2016-Jun-20 22:32N 51°49' E 004°03'0 0.0
2016-Jun-20 21:32N 51°49' E 004°03'0 0.0
2016-Jun-20 20:32N 51°49' E 004°03'0 0.0
2016-Jun-20 19:32N 51°49' E 004°03'0 0.0
2016-Jun-20 18:32N 51°49' E 004°03'0 0.0
2016-Jun-20 17:32N 51°49' E 004°03'0 0.0
2016-Jun-20 16:32N 51°49' E 004°03'0 0.0
2016-Jun-20 15:32N 51°49' E 004°03'0 0.0
2016-Jun-20 14:32N 51°49' E 004°03'0 0.0
2016-Jun-20 13:32N 51°49' E 004°03'0 0.0
2016-Jun-20 12:26N 51°49' E 004°03'0 0.0
2016-Jun-20 11:32N 51°49' E 004°03'0 0.0
2016-Jun-20 10:32N 51°49' E 004°03'0 0.0
2016-Jun-20 09:32N 51°49' E 004°03'0 0.0
2016-Jun-20 08:32N 51°49' E 004°03'0 0.0
2016-Jun-20 07:32N 51°49' E 004°03'0 0.0
2016-Jun-20 06:32N 51°49' E 004°03'0 0.0
2016-Jun-20 05:32N 51°49' E 004°03'0 0.0
2016-Jun-20 04:29N 51°49' E 004°03'0 0.0
2016-Jun-20 03:32N 51°49' E 004°03'0 0.0
2016-Jun-20 02:26N 51°49' E 004°03'0 0.0
2016-Jun-20 01:32N 51°49' E 004°03'0 0.0
2016-Jun-20 00:32N 51°49' E 004°03'0 0.0
2016-Jun-19 23:32N 51°49' E 004°03'0 0.0
2016-Jun-19 22:32N 51°49' E 004°03'0 0.0
2016-Jun-19 21:32N 51°49' E 004°03'0 0.0
2016-Jun-19 20:32N 51°49' E 004°03'0 0.0
2016-Jun-19 19:26N 51°49' E 004°03'0 0.0
2016-Jun-19 18:32N 51°49' E 004°03'0 0.0
2016-Jun-19 17:32N 51°49' E 004°03'0 0.0
2016-Jun-19 16:32N 51°49' E 004°03'0 0.0
2016-Jun-19 15:29N 51°49' E 004°03'0 0.0
2016-Jun-19 14:32N 51°49' E 004°03'0 0.0
2016-Jun-19 13:32N 51°49' E 004°03'0 0.0
2016-Jun-19 12:32N 51°49' E 004°03'0 0.0
2016-Jun-19 11:32N 51°49' E 004°03'0 0.0
2016-Jun-19 10:32N 51°49' E 004°03'0 0.0
2016-Jun-19 09:32N 51°49' E 004°03'0 0.0
2016-Jun-19 08:32N 51°49' E 004°03'0 0.0
2016-Jun-19 07:32N 51°49' E 004°03'0 0.0
2016-Jun-19 06:32N 51°49' E 004°03'0 0.0
2016-Jun-19 05:32N 51°49' E 004°03'0 0.0
2016-Jun-19 04:32N 51°49' E 004°03'0 0.0
2016-Jun-19 03:32N 51°49' E 004°03'0 0.0
2016-Jun-19 02:32N 51°49' E 004°03'0 0.0
2016-Jun-19 01:32N 51°49' E 004°03'0 0.0
2016-Jun-19 00:32N 51°49' E 004°03'0 0.0
2016-Jun-18 23:32N 51°49' E 004°03'0 0.0
2016-Jun-18 22:32N 51°49' E 004°03'0 0.0
2016-Jun-18 21:32N 51°49' E 004°03'0 0.0
2016-Jun-18 20:26N 51°49' E 004°03'0 0.0
2016-Jun-18 19:32N 51°49' E 004°03'0 0.0
2016-Jun-18 18:32N 51°49' E 004°03'0 0.0
2016-Jun-18 17:26N 51°49' E 004°03'  
Track history (hours):
 
Tides and Currents Weather Stations Pressure Air Temp Water Temp Dewpoint Dewpoint Depression Visibility Wind Speed Wind Dir Waves Ship Positions

Oceanographic research ship Arca (Netherlands)

Detailed information on ship capabilities available from University of Delaware's Ocean Information Center.

Last reported at 2016-Jun-28 16:33 UTC. Time now 2016-Jun-28 17:07 UTC.
Position N 52°06' E 004°13'.

Length 83 m; draft 5 m.

Type: Law enforcement. MMSI: 244454000.

Date/timePositionNaut miles runAvg speedWind from/ knotsBaromVisibWave heightAir tempDewpointWater temp
2016-Jun-28 16:33N 52°06' E 004°13'8 8.4
2016-Jun-28 15:34N 51°59' E 004°06'0 0.4
2016-Jun-28 14:33N 51°59' E 004°06'3 3.3
2016-Jun-28 13:33N 52°00' E 004°01'5 4.9
2016-Jun-28 12:33N 52°04' E 004°06'5 4.5
2016-Jun-28 11:33N 52°08' E 004°09'1 0.7
2016-Jun-28 10:33N 52°09' E 004°10'1 0.7
2016-Jun-28 09:33N 52°09' E 004°11'3 3.4
2016-Jun-28 08:34N 52°12' E 004°14'2 2.0
2016-Jun-28 07:33N 52°10' E 004°14'2 2.0
2016-Jun-28 06:33N 52°08' E 004°13'3 1.4
2016-Jun-28 04:33N 52°06' E 004°16'0 0.0
2016-Jun-28 03:33N 52°06' E 004°16'0 0.0
2016-Jun-28 02:33N 52°06' E 004°16'0 0.0
2016-Jun-28 01:33N 52°06' E 004°16'0 0.0
2016-Jun-28 00:33N 52°06' E 004°16'0 0.0
2016-Jun-27 23:33N 52°06' E 004°16'0 0.0
2016-Jun-27 22:33N 52°06' E 004°16'0 0.0
2016-Jun-27 21:33N 52°06' E 004°16'0 0.0
2016-Jun-27 20:33N 52°06' E 004°16'0 0.0
2016-Jun-27 19:33N 52°06' E 004°16'0 0.0
2016-Jun-27 18:33N 52°06' E 004°16'0 0.0
2016-Jun-27 17:33N 52°06' E 004°16'0 0.0
2016-Jun-27 16:33N 52°06' E 004°16'0 0.0
2016-Jun-27 15:33N 52°06' E 004°16'0 0.0
2016-Jun-27 14:33N 52°06' E 004°16'0 0.0
2016-Jun-27 13:33N 52°06' E 004°16'0 0.0
2016-Jun-27 12:33N 52°06' E 004°16'0 0.0
2016-Jun-27 11:34N 52°06' E 004°16'0 0.0
2016-Jun-27 10:34N 52°06' E 004°16'0 0.0
2016-Jun-27 09:34N 52°06' E 004°16'0 0.0
2016-Jun-27 08:33N 52°06' E 004°16'0 0.0
2016-Jun-27 07:33N 52°06' E 004°16'0 0.0
2016-Jun-27 06:30N 52°06' E 004°16'0 0.0
2016-Jun-27 05:33N 52°06' E 004°16'0 0.0
2016-Jun-27 04:33N 52°06' E 004°16'0 0.0
2016-Jun-27 03:27N 52°06' E 004°16'0 0.0
2016-Jun-27 02:33N 52°06' E 004°16'0 0.0
2016-Jun-27 01:33N 52°06' E 004°16'0 0.0
2016-Jun-27 00:33N 52°06' E 004°16'0 0.0
2016-Jun-26 23:33N 52°06' E 004°16'0 0.0
2016-Jun-26 22:33N 52°06' E 004°16'0 0.0
2016-Jun-26 21:33N 52°06' E 004°16'0 0.0
2016-Jun-26 20:33N 52°06' E 004°16'0 0.0
2016-Jun-26 19:33N 52°06' E 004°16'0 0.0
2016-Jun-26 18:33N 52°06' E 004°16'0 0.0
2016-Jun-26 17:33N 52°06' E 004°16'0 0.0
2016-Jun-26 16:33N 52°06' E 004°16'0 0.0
2016-Jun-26 15:33N 52°06' E 004°16'0 0.0
2016-Jun-26 14:33N 52°06' E 004°16'0 0.0
2016-Jun-26 13:33N 52°06' E 004°16'0 0.0
2016-Jun-26 12:33N 52°06' E 004°16'0 0.0
2016-Jun-26 11:30N 52°06' E 004°16'0 0.0
2016-Jun-26 10:33N 52°06' E 004°16'0 0.0
2016-Jun-26 09:33N 52°06' E 004°16'0 0.0
2016-Jun-26 08:33N 52°06' E 004°16'0 0.0
2016-Jun-26 07:33N 52°06' E 004°16'0 0.0
2016-Jun-26 06:33N 52°06' E 004°16'0 0.0
2016-Jun-26 05:33N 52°06' E 004°16'0 0.0
2016-Jun-26 04:33N 52°06' E 004°16'0 0.0
2016-Jun-26 03:33N 52°06' E 004°16'0 0.0
2016-Jun-26 02:30N 52°06' E 004°16'0 0.0
2016-Jun-26 01:33N 52°06' E 004°16'0 0.0
2016-Jun-26 00:33N 52°06' E 004°16'0 0.0
2016-Jun-25 23:30N 52°06' E 004°16'0 0.0
2016-Jun-25 22:33N 52°06' E 004°16'0 0.0
2016-Jun-25 21:33N 52°06' E 004°16'0 0.0
2016-Jun-25 20:33N 52°06' E 004°16'0 0.0
2016-Jun-25 19:33N 52°06' E 004°16'0 0.0
2016-Jun-25 18:24N 52°06' E 004°16'0 0.0
2016-Jun-25 17:33N 52°06' E 004°16'0 0.0
2016-Jun-25 16:27N 52°06' E 004°16'0 0.0
2016-Jun-25 15:33N 52°06' E 004°16'0 0.0
2016-Jun-25 14:33N 52°06' E 004°16'0 0.0
2016-Jun-25 13:33N 52°06' E 004°16'0 0.0
2016-Jun-25 12:30N 52°06' E 004°16'0 0.0
2016-Jun-25 11:30N 52°06' E 004°16'0 0.0
2016-Jun-25 10:33N 52°06' E 004°16'0 0.0
2016-Jun-25 09:33N 52°06' E 004°16'0 0.0
2016-Jun-25 08:33N 52°06' E 004°16'0 0.0
2016-Jun-25 07:33N 52°06' E 004°16'0 0.0
2016-Jun-25 06:33N 52°06' E 004°16'0 0.0
2016-Jun-25 05:33N 52°06' E 004°16'0 0.0
2016-Jun-25 04:33N 52°06' E 004°16'0 0.0
2016-Jun-25 03:33N 52°06' E 004°16'0 0.0
2016-Jun-25 02:33N 52°06' E 004°16'0 0.0
2016-Jun-25 01:33N 52°06' E 004°16'0 0.0
2016-Jun-25 00:33N 52°06' E 004°16'0 0.0
2016-Jun-24 23:33N 52°06' E 004°16'0 0.0
2016-Jun-24 22:30N 52°06' E 004°16'0 0.0
2016-Jun-24 21:33N 52°06' E 004°16'0 0.0
2016-Jun-24 20:33N 52°06' E 004°16'0 0.0
2016-Jun-24 19:33N 52°06' E 004°16'0 0.0
2016-Jun-24 18:33N 52°06' E 004°16'0 0.0
2016-Jun-24 17:33N 52°06' E 004°16'0 0.0
2016-Jun-24 16:33N 52°06' E 004°16'0 0.0
2016-Jun-24 15:33N 52°06' E 004°16'0 0.0
2016-Jun-24 14:33N 52°06' E 004°16'0 0.0
2016-Jun-24 13:33N 52°06' E 004°16'0 0.0
2016-Jun-24 12:33N 52°06' E 004°16'0 0.0
2016-Jun-24 11:33N 52°06' E 004°16'0 0.0
2016-Jun-24 10:33N 52°06' E 004°16'0 0.0
2016-Jun-24 09:33N 52°06' E 004°16'0 0.0
2016-Jun-24 08:33N 52°06' E 004°16'0 0.0
2016-Jun-24 07:33N 52°06' E 004°16'0 0.0
2016-Jun-24 04:30N 52°06' E 004°16'0 0.0
2016-Jun-24 03:33N 52°06' E 004°16'0 0.0
2016-Jun-24 02:33N 52°06' E 004°16'0 0.0
2016-Jun-24 01:33N 52°06' E 004°16'0 0.0
2016-Jun-24 00:33N 52°06' E 004°16'0 0.0
2016-Jun-23 23:33N 52°06' E 004°16'0 0.0
2016-Jun-23 22:33N 52°06' E 004°16'0 0.0
2016-Jun-23 21:30N 52°06' E 004°16'0 0.0
2016-Jun-23 20:27N 52°06' E 004°16'0 0.0
2016-Jun-23 19:33N 52°06' E 004°16'0 0.0
2016-Jun-23 18:27N 52°06' E 004°16'4 4.8
2016-Jun-23 17:34N 52°05' E 004°09'1414.3
2016-Jun-23 16:33N 51°54' E 003°53'7 7.0
2016-Jun-23 15:33N 51°50' E 004°02'1 0.6
2016-Jun-23 14:29N 51°49' E 004°03'0 0.0
2016-Jun-23 13:32N 51°49' E 004°03'0 0.0
2016-Jun-23 12:20N 51°49' E 004°03'0 0.0
2016-Jun-23 11:32N 51°49' E 004°03'0 0.0
2016-Jun-23 10:32N 51°49' E 004°03'0 0.0
2016-Jun-23 09:32N 51°49' E 004°03'0 0.0
2016-Jun-23 08:32N 51°49' E 004°03'0 0.0
2016-Jun-23 07:23N 51°49' E 004°03'0 0.0
2016-Jun-23 05:32N 51°49' E 004°03'0 0.0
2016-Jun-23 04:32N 51°49' E 004°03'0 0.0
2016-Jun-23 03:32N 51°49' E 004°03'0 0.0
2016-Jun-23 02:32N 51°49' E 004°03'0 0.0
2016-Jun-23 01:32N 51°49' E 004°03'0 0.0
2016-Jun-23 00:32N 51°49' E 004°03'0 0.0
2016-Jun-22 23:32N 51°49' E 004°03'0 0.0
2016-Jun-22 22:32N 51°49' E 004°03'0 0.0
2016-Jun-22 21:32N 51°49' E 004°03'0 0.0
2016-Jun-22 20:32N 51°49' E 004°03'0 0.0
2016-Jun-22 19:32N 51°49' E 004°03'0 0.0
2016-Jun-22 18:32N 51°49' E 004°03'0 0.0
2016-Jun-22 17:32N 51°49' E 004°03'0 0.0
2016-Jun-22 16:32N 51°49' E 004°03'0 0.0
2016-Jun-22 15:32N 51°49' E 004°03'0 0.0
2016-Jun-22 14:32N 51°49' E 004°03'0 0.0
2016-Jun-22 13:32N 51°49' E 004°03'0 0.0
2016-Jun-22 12:32N 51°49' E 004°03'0 0.0
2016-Jun-22 11:32N 51°49' E 004°03'0 0.0
2016-Jun-22 10:32N 51°49' E 004°03'0 0.0
2016-Jun-22 09:32N 51°49' E 004°03'0 0.0
2016-Jun-22 08:32N 51°49' E 004°03'0 0.0
2016-Jun-22 07:29N 51°49' E 004°03'0 0.0
2016-Jun-22 06:32N 51°49' E 004°03'0 0.0
2016-Jun-22 05:29N 51°49' E 004°03'0 0.0
2016-Jun-22 04:32N 51°49' E 004°03'0 0.0
2016-Jun-22 03:32N 51°49' E 004°03'0 0.0
2016-Jun-22 02:29N 51°49' E 004°03'0 0.0
2016-Jun-22 01:32N 51°49' E 004°03'0 0.0
2016-Jun-22 00:32N 51°49' E 004°03'0 0.0
2016-Jun-21 23:32N 51°49' E 004°03'0 0.0
2016-Jun-21 22:32N 51°49' E 004°03'0 0.0
2016-Jun-21 21:32N 51°49' E 004°03'0 0.0
2016-Jun-21 20:32N 51°49' E 004°03'0 0.0
2016-Jun-21 19:32N 51°49' E 004°03'0 0.0
2016-Jun-21 18:32N 51°49' E 004°03'0 0.0
2016-Jun-21 17:32N 51°49' E 004°03'0 0.0
2016-Jun-21 16:32N 51°49' E 004°03'0 0.0
2016-Jun-21 15:32N 51°49' E 004°03'0 0.0
2016-Jun-21 14:32N 51°49' E 004°03'0 0.0
2016-Jun-21 13:32N 51°49' E 004°03'0 0.0
2016-Jun-21 12:32N 51°49' E 004°03'0 0.0
2016-Jun-21 11:32N 51°49' E 004°03'0 0.0
2016-Jun-21 10:32N 51°49' E 004°03'0 0.0
2016-Jun-21 09:32N 51°49' E 004°03'0 0.0
2016-Jun-21 08:32N 51°49' E 004°03'0 0.0
2016-Jun-21 07:32N 51°49' E 004°03'0 0.0
2016-Jun-21 04:32N 51°49' E 004°03'0 0.0
2016-Jun-21 03:32N 51°49' E 004°03'0 0.0
2016-Jun-21 02:32N 51°49' E 004°03'0 0.0
2016-Jun-21 01:29N 51°49' E 004°03'0 0.0
2016-Jun-21 00:32N 51°49' E 004°03'0 0.0
2016-Jun-20 23:32N 51°49' E 004°03'0 0.0
2016-Jun-20 22:32N 51°49' E 004°03'0 0.0
2016-Jun-20 21:32N 51°49' E 004°03'0 0.0
2016-Jun-20 20:32N 51°49' E 004°03'0 0.0
2016-Jun-20 19:32N 51°49' E 004°03'0 0.0
2016-Jun-20 18:32N 51°49' E 004°03'0 0.0
2016-Jun-20 17:32N 51°49' E 004°03'0 0.0
2016-Jun-20 16:32N 51°49' E 004°03'0 0.0
2016-Jun-20 15:32N 51°49' E 004°03'0 0.0
2016-Jun-20 14:32N 51°49' E 004°03'0 0.0
2016-Jun-20 13:32N 51°49' E 004°03'0 0.0
2016-Jun-20 12:26N 51°49' E 004°03'0 0.0
2016-Jun-20 11:32N 51°49' E 004°03'0 0.0
2016-Jun-20 10:32N 51°49' E 004°03'0 0.0
2016-Jun-20 09:32N 51°49' E 004°03'0 0.0
2016-Jun-20 08:32N 51°49' E 004°03'0 0.0
2016-Jun-20 07:32N 51°49' E 004°03'0 0.0
2016-Jun-20 06:32N 51°49' E 004°03'0 0.0
2016-Jun-20 05:32N 51°49' E 004°03'0 0.0
2016-Jun-20 04:29N 51°49' E 004°03'0 0.0
2016-Jun-20 03:32N 51°49' E 004°03'0 0.0
2016-Jun-20 02:26N 51°49' E 004°03'0 0.0
2016-Jun-20 01:32N 51°49' E 004°03'0 0.0
2016-Jun-20 00:32N 51°49' E 004°03'0 0.0
2016-Jun-19 23:32N 51°49' E 004°03'0 0.0
2016-Jun-19 22:32N 51°49' E 004°03'0 0.0
2016-Jun-19 21:32N 51°49' E 004°03'0 0.0
2016-Jun-19 20:32N 51°49' E 004°03'0 0.0
2016-Jun-19 19:26N 51°49' E 004°03'0 0.0
2016-Jun-19 18:32N 51°49' E 004°03'0 0.0
2016-Jun-19 17:32N 51°49' E 004°03'0 0.0
2016-Jun-19 16:32N 51°49' E 004°03'0 0.0
2016-Jun-19 15:29N 51°49' E 004°03'0 0.0
2016-Jun-19 14:32N 51°49' E 004°03'0 0.0
2016-Jun-19 13:32N 51°49' E 004°03'0 0.0
2016-Jun-19 12:32N 51°49' E 004°03'0 0.0
2016-Jun-19 11:32N 51°49' E 004°03'0 0.0
2016-Jun-19 10:32N 51°49' E 004°03'0 0.0
2016-Jun-19 09:32N 51°49' E 004°03'0 0.0
2016-Jun-19 08:32N 51°49' E 004°03'0 0.0
2016-Jun-19 07:32N 51°49' E 004°03'0 0.0
2016-Jun-19 06:32N 51°49' E 004°03'0 0.0
2016-Jun-19 05:32N 51°49' E 004°03'0 0.0
2016-Jun-19 04:32N 51°49' E 004°03'0 0.0
2016-Jun-19 03:32N 51°49' E 004°03'0 0.0
2016-Jun-19 02:32N 51°49' E 004°03'0 0.0
2016-Jun-19 01:32N 51°49' E 004°03'0 0.0
2016-Jun-19 00:32N 51°49' E 004°03'0 0.0
2016-Jun-18 23:32N 51°49' E 004°03'0 0.0
2016-Jun-18 22:32N 51°49' E 004°03'0 0.0
2016-Jun-18 21:32N 51°49' E 004°03'0 0.0
2016-Jun-18 20:26N 51°49' E 004°03'0 0.0
2016-Jun-18 19:32N 51°49' E 004°03'0 0.0
2016-Jun-18 18:32N 51°49' E 004°03'0 0.0
2016-Jun-18 17:26N 51°49' E 004°03'  

Dump ship's entire track history